sensor_id;sensor_type;location;lat;lon;timestamp;P1;durP1;ratioP1;P2;durP2;ratioP2
75496;SDS011;64074;47.540;19.072;2023-05-09T00:00:56;5.15;;;3.35;;
75496;SDS011;64074;47.540;19.072;2023-05-09T00:04:40;5.57;;;3.10;;
75496;SDS011;64074;47.540;19.072;2023-05-09T00:08:18;5.03;;;2.90;;
75496;SDS011;64074;47.540;19.072;2023-05-09T00:11:34;4.55;;;3.50;;
75496;SDS011;64074;47.540;19.072;2023-05-09T00:14:49;4.63;;;3.00;;
75496;SDS011;64074;47.540;19.072;2023-05-09T00:17:58;4.80;;;3.03;;
75496;SDS011;64074;47.540;19.072;2023-05-09T00:21:09;4.10;;;3.20;;
75496;SDS011;64074;47.540;19.072;2023-05-09T00:24:30;4.57;;;2.92;;
75496;SDS011;64074;47.540;19.072;2023-05-09T00:27:37;4.93;;;3.10;;
75496;SDS011;64074;47.540;19.072;2023-05-09T00:30:48;5.33;;;3.40;;
75496;SDS011;64074;47.540;19.072;2023-05-09T00:33:53;5.80;;;3.20;;
75496;SDS011;64074;47.540;19.072;2023-05-09T00:37:04;3.92;;;3.20;;
75496;SDS011;64074;47.540;19.072;2023-05-09T00:40:43;4.90;;;3.47;;
75496;SDS011;64074;47.540;19.072;2023-05-09T00:44:06;4.75;;;3.08;;
75496;SDS011;64074;47.540;19.072;2023-05-09T00:47:24;4.93;;;3.10;;
75496;SDS011;64074;47.540;19.072;2023-05-09T00:50:48;5.10;;;3.03;;
75496;SDS011;64074;47.540;19.072;2023-05-09T00:54:19;4.07;;;3.10;;
75496;SDS011;64074;47.540;19.072;2023-05-09T00:57:42;4.60;;;3.25;;
75496;SDS011;64074;47.540;19.072;2023-05-09T01:01:02;4.40;;;3.65;;
75496;SDS011;64074;47.540;19.072;2023-05-09T01:04:20;4.93;;;3.47;;
75496;SDS011;64074;47.540;19.072;2023-05-09T01:07:59;4.22;;;3.20;;
75496;SDS011;64074;47.540;19.072;2023-05-09T01:11:33;7.45;;;3.65;;
75496;SDS011;64074;47.540;19.072;2023-05-09T01:15:02;4.65;;;3.33;;
75496;SDS011;64074;47.540;19.072;2023-05-09T01:21:56;4.53;;;3.40;;
75496;SDS011;64074;47.540;19.072;2023-05-09T01:29:36;5.47;;;3.40;;
75496;SDS011;64074;47.540;19.072;2023-05-09T01:33:05;5.15;;;3.40;;
75496;SDS011;64074;47.540;19.072;2023-05-09T01:36:24;4.75;;;3.10;;
75496;SDS011;64074;47.540;19.072;2023-05-09T01:40:13;7.97;;;3.50;;
75496;SDS011;64074;47.540;19.072;2023-05-09T01:44:13;5.35;;;3.55;;
75496;SDS011;64074;47.540;19.072;2023-05-09T01:47:48;5.13;;;3.47;;
75496;SDS011;64074;47.540;19.072;2023-05-09T01:51:31;6.93;;;3.53;;
75496;SDS011;64074;47.540;19.072;2023-05-09T01:55:06;5.55;;;3.55;;
75496;SDS011;64074;47.540;19.072;2023-05-09T01:59:11;5.90;;;3.70;;
75496;SDS011;64074;47.540;19.072;2023-05-09T02:02:53;5.78;;;3.60;;
75496;SDS011;64074;47.540;19.072;2023-05-09T02:06:10;5.78;;;3.80;;
75496;SDS011;64074;47.540;19.072;2023-05-09T02:09:34;7.70;;;3.88;;
75496;SDS011;64074;47.540;19.072;2023-05-09T02:13:15;7.75;;;3.78;;
75496;SDS011;64074;47.540;19.072;2023-05-09T02:16:47;6.90;;;3.70;;
75496;SDS011;64074;47.540;19.072;2023-05-09T02:20:04;30.15;;;14.73;;
75496;SDS011;64074;47.540;19.072;2023-05-09T02:23:35;6.97;;;4.30;;
75496;SDS011;64074;47.540;19.072;2023-05-09T02:26:53;7.20;;;4.03;;
75496;SDS011;64074;47.540;19.072;2023-05-09T02:30:16;6.00;;;3.83;;
75496;SDS011;64074;47.540;19.072;2023-05-09T02:33:49;5.27;;;3.50;;
75496;SDS011;64074;47.540;19.072;2023-05-09T02:37:13;5.28;;;3.40;;
75496;SDS011;64074;47.540;19.072;2023-05-09T02:40:49;6.57;;;4.30;;
75496;SDS011;64074;47.540;19.072;2023-05-09T02:44:28;6.30;;;4.00;;
75496;SDS011;64074;47.540;19.072;2023-05-09T02:48:03;6.00;;;3.90;;
75496;SDS011;64074;47.540;19.072;2023-05-09T02:51:29;7.37;;;3.80;;
75496;SDS011;64074;47.540;19.072;2023-05-09T02:55:34;6.43;;;3.83;;
75496;SDS011;64074;47.540;19.072;2023-05-09T02:58:43;7.80;;;4.15;;
75496;SDS011;64074;47.540;19.072;2023-05-09T03:02:00;5.55;;;3.55;;
75496;SDS011;64074;47.540;19.072;2023-05-09T03:05:17;6.28;;;4.05;;
75496;SDS011;64074;47.540;19.072;2023-05-09T03:08:37;6.30;;;4.10;;
75496;SDS011;64074;47.540;19.072;2023-05-09T03:12:07;5.63;;;3.65;;
75496;SDS011;64074;47.540;19.072;2023-05-09T03:15:18;5.97;;;4.00;;
75496;SDS011;64074;47.540;19.072;2023-05-09T03:18:43;7.22;;;4.40;;
75496;SDS011;64074;47.540;19.072;2023-05-09T03:22:05;7.78;;;4.20;;
75496;SDS011;64074;47.540;19.072;2023-05-09T03:25:24;5.73;;;3.60;;
75496;SDS011;64074;47.540;19.072;2023-05-09T03:28:46;6.05;;;3.70;;
75496;SDS011;64074;47.540;19.072;2023-05-09T03:32:05;6.68;;;3.97;;
75496;SDS011;64074;47.540;19.072;2023-05-09T03:35:30;5.35;;;4.00;;
75496;SDS011;64074;47.540;19.072;2023-05-09T03:38:51;6.45;;;4.03;;
75496;SDS011;64074;47.540;19.072;2023-05-09T03:42:26;9.50;;;4.13;;
75496;SDS011;64074;47.540;19.072;2023-05-09T03:46:48;7.82;;;4.00;;
75496;SDS011;64074;47.540;19.072;2023-05-09T03:50:12;9.57;;;4.68;;
75496;SDS011;64074;47.540;19.072;2023-05-09T03:53:21;7.15;;;4.10;;
75496;SDS011;64074;47.540;19.072;2023-05-09T03:56:34;7.47;;;4.00;;
75496;SDS011;64074;47.540;19.072;2023-05-09T03:59:58;6.10;;;4.07;;
75496;SDS011;64074;47.540;19.072;2023-05-09T04:04:13;5.63;;;3.67;;
75496;SDS011;64074;47.540;19.072;2023-05-09T04:07:30;7.20;;;4.25;;
75496;SDS011;64074;47.540;19.072;2023-05-09T04:10:41;7.85;;;3.70;;
75496;SDS011;64074;47.540;19.072;2023-05-09T04:14:03;7.72;;;4.18;;
75496;SDS011;64074;47.540;19.072;2023-05-09T04:17:13;6.37;;;3.87;;
75496;SDS011;64074;47.540;19.072;2023-05-09T04:20:20;7.32;;;4.20;;
75496;SDS011;64074;47.540;19.072;2023-05-09T04:23:31;8.38;;;4.13;;
75496;SDS011;64074;47.540;19.072;2023-05-09T04:26:51;5.63;;;3.70;;
75496;SDS011;64074;47.540;19.072;2023-05-09T04:29:59;6.20;;;4.03;;
75496;SDS011;64074;47.540;19.072;2023-05-09T04:33:10;5.50;;;3.70;;
75496;SDS011;64074;47.540;19.072;2023-05-09T04:36:26;6.80;;;4.07;;
75496;SDS011;64074;47.540;19.072;2023-05-09T04:39:48;8.55;;;4.18;;
75496;SDS011;64074;47.540;19.072;2023-05-09T04:43:17;7.05;;;4.03;;
75496;SDS011;64074;47.540;19.072;2023-05-09T04:46:41;6.57;;;4.25;;
75496;SDS011;64074;47.540;19.072;2023-05-09T04:49:55;9.07;;;3.80;;
75496;SDS011;64074;47.540;19.072;2023-05-09T04:53:43;9.43;;;4.25;;
75496;SDS011;64074;47.540;19.072;2023-05-09T04:57:02;7.07;;;3.97;;
75496;SDS011;64074;47.540;19.072;2023-05-09T05:00:55;5.32;;;3.72;;
75496;SDS011;64074;47.540;19.072;2023-05-09T05:04:09;6.85;;;4.28;;
75496;SDS011;64074;47.540;19.072;2023-05-09T05:07:24;5.20;;;3.70;;
75496;SDS011;64074;47.540;19.072;2023-05-09T05:10:47;5.82;;;3.60;;
75496;SDS011;64074;47.540;19.072;2023-05-09T05:14:12;6.03;;;3.80;;
75496;SDS011;64074;47.540;19.072;2023-05-09T05:17:32;6.05;;;3.22;;
75496;SDS011;64074;47.540;19.072;2023-05-09T05:20:57;6.93;;;3.90;;
75496;SDS011;64074;47.540;19.072;2023-05-09T05:24:15;5.63;;;3.70;;
75496;SDS011;64074;47.540;19.072;2023-05-09T05:27:37;6.70;;;4.50;;
75496;SDS011;64074;47.540;19.072;2023-05-09T05:30:53;6.93;;;4.07;;
75496;SDS011;64074;47.540;19.072;2023-05-09T05:34:11;6.15;;;3.55;;
75496;SDS011;64074;47.540;19.072;2023-05-09T05:37:36;8.05;;;4.03;;
75496;SDS011;64074;47.540;19.072;2023-05-09T05:41:01;6.83;;;3.60;;
75496;SDS011;64074;47.540;19.072;2023-05-09T05:44:17;6.07;;;4.20;;
75496;SDS011;64074;47.540;19.072;2023-05-09T05:47:53;6.70;;;4.05;;
75496;SDS011;64074;47.540;19.072;2023-05-09T05:51:15;6.53;;;3.70;;
75496;SDS011;64074;47.540;19.072;2023-05-09T05:54:21;6.38;;;4.00;;
75496;SDS011;64074;47.540;19.072;2023-05-09T05:57:40;8.03;;;3.60;;
75496;SDS011;64074;47.540;19.072;2023-05-09T06:00:54;9.27;;;3.70;;
75496;SDS011;64074;47.540;19.072;2023-05-09T06:04:07;5.55;;;3.80;;
75496;SDS011;64074;47.540;19.072;2023-05-09T06:08:19;11.07;;;4.00;;
75496;SDS011;64074;47.540;19.072;2023-05-09T06:12:41;8.02;;;3.65;;
75496;SDS011;64074;47.540;19.072;2023-05-09T06:16:01;8.43;;;3.27;;
75496;SDS011;64074;47.540;19.072;2023-05-09T06:19:26;5.40;;;3.13;;
75496;SDS011;64074;47.540;19.072;2023-05-09T06:22:33;5.10;;;3.53;;
75496;SDS011;64074;47.540;19.072;2023-05-09T06:25:49;5.97;;;3.50;;
75496;SDS011;64074;47.540;19.072;2023-05-09T06:29:06;5.72;;;3.30;;
75496;SDS011;64074;47.540;19.072;2023-05-09T06:32:24;6.77;;;3.20;;
75496;SDS011;64074;47.540;19.072;2023-05-09T06:35:37;8.32;;;3.00;;
75496;SDS011;64074;47.540;19.072;2023-05-09T06:39:02;8.77;;;6.28;;
75496;SDS011;64074;47.540;19.072;2023-05-09T06:42:28;9.18;;;3.20;;
75496;SDS011;64074;47.540;19.072;2023-05-09T06:45:50;4.43;;;3.05;;
75496;SDS011;64074;47.540;19.072;2023-05-09T06:49:16;5.63;;;3.30;;
75496;SDS011;64074;47.540;19.072;2023-05-09T06:52:34;8.48;;;3.75;;
75496;SDS011;64074;47.540;19.072;2023-05-09T06:55:56;5.10;;;1.70;;
75496;SDS011;64074;47.540;19.072;2023-05-09T06:59:03;4.10;;;1.63;;
75496;SDS011;64074;47.540;19.072;2023-05-09T07:02:07;4.15;;;1.70;;
75496;SDS011;64074;47.540;19.072;2023-05-09T07:05:17;2.77;;;1.63;;
75496;SDS011;64074;47.540;19.072;2023-05-09T07:08:42;3.28;;;1.40;;
75496;SDS011;64074;47.540;19.072;2023-05-09T07:11:59;2.65;;;1.45;;
75496;SDS011;64074;47.540;19.072;2023-05-09T07:15:09;2.55;;;1.70;;
75496;SDS011;64074;47.540;19.072;2023-05-09T07:18:39;2.20;;;1.50;;
75496;SDS011;64074;47.540;19.072;2023-05-09T07:21:49;2.53;;;1.40;;
75496;SDS011;64074;47.540;19.072;2023-05-09T07:24:58;4.60;;;1.88;;
75496;SDS011;64074;47.540;19.072;2023-05-09T07:28:07;2.95;;;1.33;;
75496;SDS011;64074;47.540;19.072;2023-05-09T07:31:29;1.80;;;1.30;;
75496;SDS011;64074;47.540;19.072;2023-05-09T07:35:17;2.70;;;1.40;;
75496;SDS011;64074;47.540;19.072;2023-05-09T07:38:27;3.53;;;1.60;;
75496;SDS011;64074;47.540;19.072;2023-05-09T07:41:33;5.57;;;1.50;;
75496;SDS011;64074;47.540;19.072;2023-05-09T07:44:48;1.90;;;1.30;;
75496;SDS011;64074;47.540;19.072;2023-05-09T07:48:10;5.40;;;1.67;;
75496;SDS011;64074;47.540;19.072;2023-05-09T07:51:30;3.38;;;1.25;;
75496;SDS011;64074;47.540;19.072;2023-05-09T07:54:36;3.27;;;1.30;;
75496;SDS011;64074;47.540;19.072;2023-05-09T07:57:48;3.95;;;1.13;;
75496;SDS011;64074;47.540;19.072;2023-05-09T08:01:02;4.10;;;1.02;;
75496;SDS011;64074;47.540;19.072;2023-05-09T08:04:19;2.20;;;1.50;;
75496;SDS011;64074;47.540;19.072;2023-05-09T08:07:40;1.50;;;0.90;;
75496;SDS011;64074;47.540;19.072;2023-05-09T08:11:00;3.80;;;1.20;;
75496;SDS011;64074;47.540;19.072;2023-05-09T08:14:37;2.30;;;1.10;;
75496;SDS011;64074;47.540;19.072;2023-05-09T08:17:52;2.13;;;0.80;;
75496;SDS011;64074;47.540;19.072;2023-05-09T08:21:03;2.05;;;1.00;;
75496;SDS011;64074;47.540;19.072;2023-05-09T08:24:36;2.60;;;1.00;;
75496;SDS011;64074;47.540;19.072;2023-05-09T08:27:51;2.30;;;1.00;;
75496;SDS011;64074;47.540;19.072;2023-05-09T08:31:05;1.80;;;0.75;;
75496;SDS011;64074;47.540;19.072;2023-05-09T08:34:24;5.30;;;1.40;;
75496;SDS011;64074;47.540;19.072;2023-05-09T08:37:38;1.40;;;1.10;;
75496;SDS011;64074;47.540;19.072;2023-05-09T08:40:59;2.65;;;1.10;;
75496;SDS011;64074;47.540;19.072;2023-05-09T08:44:29;3.87;;;1.00;;
75496;SDS011;64074;47.540;19.072;2023-05-09T08:47:53;1.00;;;0.90;;
75496;SDS011;64074;47.540;19.072;2023-05-09T08:51:21;2.03;;;1.00;;
75496;SDS011;64074;47.540;19.072;2023-05-09T08:54:52;1.77;;;0.90;;
75496;SDS011;64074;47.540;19.072;2023-05-09T08:58:05;2.20;;;0.95;;
75496;SDS011;64074;47.540;19.072;2023-05-09T09:01:33;0.83;;;0.70;;
75496;SDS011;64074;47.540;19.072;2023-05-09T09:04:49;4.25;;;1.17;;
75496;SDS011;64074;47.540;19.072;2023-05-09T09:08:08;2.13;;;0.80;;
75496;SDS011;64074;47.540;19.072;2023-05-09T09:11:41;1.48;;;0.80;;
75496;SDS011;64074;47.540;19.072;2023-05-09T09:14:56;3.90;;;1.00;;
75496;SDS011;64074;47.540;19.072;2023-05-09T09:18:22;1.20;;;0.90;;
75496;SDS011;64074;47.540;19.072;2023-05-09T09:21:40;2.08;;;0.90;;
75496;SDS011;64074;47.540;19.072;2023-05-09T09:24:54;2.20;;;1.10;;
75496;SDS011;64074;47.540;19.072;2023-05-09T09:28:22;2.72;;;0.80;;
75496;SDS011;64074;47.540;19.072;2023-05-09T09:31:56;3.08;;;1.60;;
75496;SDS011;64074;47.540;19.072;2023-05-09T09:35:13;1.03;;;0.70;;
75496;SDS011;64074;47.540;19.072;2023-05-09T09:38:29;2.60;;;0.70;;
75496;SDS011;64074;47.540;19.072;2023-05-09T09:42:00;0.77;;;0.63;;
75496;SDS011;64074;47.540;19.072;2023-05-09T09:45:26;3.83;;;0.95;;
75496;SDS011;64074;47.540;19.072;2023-05-09T09:48:38;4.18;;;1.40;;
75496;SDS011;64074;47.540;19.072;2023-05-09T09:51:50;1.00;;;0.70;;
75496;SDS011;64074;47.540;19.072;2023-05-09T09:55:04;2.22;;;0.75;;
75496;SDS011;64074;47.540;19.072;2023-05-09T09:58:30;4.97;;;1.20;;
75496;SDS011;64074;47.540;19.072;2023-05-09T10:01:54;1.60;;;1.00;;
75496;SDS011;64074;47.540;19.072;2023-05-09T10:05:19;1.92;;;1.50;;
75496;SDS011;64074;47.540;19.072;2023-05-09T10:08:35;2.50;;;0.80;;
75496;SDS011;64074;47.540;19.072;2023-05-09T10:12:01;2.03;;;1.50;;
75496;SDS011;64074;47.540;19.072;2023-05-09T10:15:11;2.05;;;1.65;;
75496;SDS011;64074;47.540;19.072;2023-05-09T10:18:27;5.85;;;2.40;;
75496;SDS011;64074;47.540;19.072;2023-05-09T10:22:10;2.75;;;1.00;;
75496;SDS011;64074;47.540;19.072;2023-05-09T10:25:20;1.73;;;0.80;;
75496;SDS011;64074;47.540;19.072;2023-05-09T10:28:34;3.35;;;0.73;;
75496;SDS011;64074;47.540;19.072;2023-05-09T10:31:49;4.45;;;1.00;;
75496;SDS011;64074;47.540;19.072;2023-05-09T10:35:48;2.70;;;1.30;;
75496;SDS011;64074;47.540;19.072;2023-05-09T10:39:02;2.08;;;1.13;;
75496;SDS011;64074;47.540;19.072;2023-05-09T10:42:18;5.80;;;1.10;;
75496;SDS011;64074;47.540;19.072;2023-05-09T10:45:42;1.80;;;0.75;;
75496;SDS011;64074;47.540;19.072;2023-05-09T10:48:56;3.67;;;1.20;;
75496;SDS011;64074;47.540;19.072;2023-05-09T10:52:08;1.75;;;1.00;;
75496;SDS011;64074;47.540;19.072;2023-05-09T10:55:22;2.10;;;1.30;;
75496;SDS011;64074;47.540;19.072;2023-05-09T11:03:26;3.50;;;1.45;;
75496;SDS011;64074;47.540;19.072;2023-05-09T11:10:09;5.53;;;1.50;;
75496;SDS011;64074;47.540;19.072;2023-05-09T11:13:37;5.38;;;1.83;;
75496;SDS011;64074;47.540;19.072;2023-05-09T11:17:03;2.53;;;1.40;;
75496;SDS011;64074;47.540;19.072;2023-05-09T11:20:16;2.28;;;1.88;;
75496;SDS011;64074;47.540;19.072;2023-05-09T11:23:31;3.05;;;1.50;;
75496;SDS011;64074;47.540;19.072;2023-05-09T11:26:45;3.30;;;1.70;;
75496;SDS011;64074;47.540;19.072;2023-05-09T11:30:19;4.43;;;1.45;;
75496;SDS011;64074;47.540;19.072;2023-05-09T11:35:08;1.67;;;1.20;;
75496;SDS011;64074;47.540;19.072;2023-05-09T11:38:51;1.30;;;1.00;;
75496;SDS011;64074;47.540;19.072;2023-05-09T11:42:23;2.05;;;1.40;;
75496;SDS011;64074;47.540;19.072;2023-05-09T11:45:35;1.27;;;0.93;;
75496;SDS011;64074;47.540;19.072;2023-05-09T11:48:51;1.02;;;0.90;;
75496;SDS011;64074;47.540;19.072;2023-05-09T11:52:05;1.10;;;1.00;;
75496;SDS011;64074;47.540;19.072;2023-05-09T11:55:32;1.88;;;1.05;;
75496;SDS011;64074;47.540;19.072;2023-05-09T11:58:42;1.50;;;1.15;;
75496;SDS011;64074;47.540;19.072;2023-05-09T12:02:03;3.80;;;1.20;;
75496;SDS011;64074;47.540;19.072;2023-05-09T12:05:19;3.38;;;1.20;;
75496;SDS011;64074;47.540;19.072;2023-05-09T12:09:15;2.53;;;1.30;;
75496;SDS011;64074;47.540;19.072;2023-05-09T12:12:27;2.42;;;1.63;;
75496;SDS011;64074;47.540;19.072;2023-05-09T12:15:43;2.90;;;1.48;;
75496;SDS011;64074;47.540;19.072;2023-05-09T12:19:05;3.60;;;1.40;;
75496;SDS011;64074;47.540;19.072;2023-05-09T12:22:25;3.70;;;1.27;;
75496;SDS011;64074;47.540;19.072;2023-05-09T12:25:50;1.87;;;1.30;;
75496;SDS011;64074;47.540;19.072;2023-05-09T12:29:05;2.78;;;1.20;;
75496;SDS011;64074;47.540;19.072;2023-05-09T12:32:29;4.05;;;1.50;;
75496;SDS011;64074;47.540;19.072;2023-05-09T12:35:43;2.65;;;1.42;;
75496;SDS011;64074;47.540;19.072;2023-05-09T12:38:56;4.50;;;1.23;;
75496;SDS011;64074;47.540;19.072;2023-05-09T12:42:17;2.13;;;1.20;;
75496;SDS011;64074;47.540;19.072;2023-05-09T12:45:37;1.83;;;1.00;;
75496;SDS011;64074;47.540;19.072;2023-05-09T12:48:52;1.75;;;1.52;;
75496;SDS011;64074;47.540;19.072;2023-05-09T12:52:02;2.00;;;1.55;;
75496;SDS011;64074;47.540;19.072;2023-05-09T12:55:20;2.00;;;1.50;;
75496;SDS011;64074;47.540;19.072;2023-05-09T12:58:46;3.67;;;1.13;;
75496;SDS011;64074;47.540;19.072;2023-05-09T13:02:02;2.10;;;1.20;;
75496;SDS011;64074;47.540;19.072;2023-05-09T13:05:28;2.70;;;1.20;;
75496;SDS011;64074;47.540;19.072;2023-05-09T13:09:00;1.67;;;1.42;;
75496;SDS011;64074;47.540;19.072;2023-05-09T13:12:14;3.65;;;1.42;;
75496;SDS011;64074;47.540;19.072;2023-05-09T13:15:25;1.50;;;1.20;;
75496;SDS011;64074;47.540;19.072;2023-05-09T13:18:46;3.38;;;1.45;;
75496;SDS011;64074;47.540;19.072;2023-05-09T13:21:53;1.38;;;1.27;;
75496;SDS011;64074;47.540;19.072;2023-05-09T13:25:04;7.00;;;1.90;;
75496;SDS011;64074;47.540;19.072;2023-05-09T13:28:29;4.28;;;1.48;;
75496;SDS011;64074;47.540;19.072;2023-05-09T13:31:46;2.97;;;2.00;;
75496;SDS011;64074;47.540;19.072;2023-05-09T13:35:08;3.90;;;1.98;;
75496;SDS011;64074;47.540;19.072;2023-05-09T13:38:19;1.83;;;1.70;;
75496;SDS011;64074;47.540;19.072;2023-05-09T13:41:43;3.80;;;1.70;;
75496;SDS011;64074;47.540;19.072;2023-05-09T13:45:13;10.73;;;8.18;;
75496;SDS011;64074;47.540;19.072;2023-05-09T13:48:42;1.93;;;1.83;;
75496;SDS011;64074;47.540;19.072;2023-05-09T13:52:32;1.75;;;1.20;;
75496;SDS011;64074;47.540;19.072;2023-05-09T13:55:52;1.95;;;1.20;;
75496;SDS011;64074;47.540;19.072;2023-05-09T13:59:39;2.20;;;1.02;;
75496;SDS011;64074;47.540;19.072;2023-05-09T14:03:00;2.78;;;1.30;;
75496;SDS011;64074;47.540;19.072;2023-05-09T14:06:26;1.33;;;1.20;;
75496;SDS011;64074;47.540;19.072;2023-05-09T14:09:37;2.03;;;1.20;;
75496;SDS011;64074;47.540;19.072;2023-05-09T14:12:49;1.90;;;1.80;;
75496;SDS011;64074;47.540;19.072;2023-05-09T14:16:51;2.25;;;1.55;;
75496;SDS011;64074;47.540;19.072;2023-05-09T14:21:03;1.60;;;1.30;;
75496;SDS011;64074;47.540;19.072;2023-05-09T14:24:25;1.83;;;1.30;;
75496;SDS011;64074;47.540;19.072;2023-05-09T14:27:54;1.55;;;1.45;;
75496;SDS011;64074;47.540;19.072;2023-05-09T14:31:22;4.18;;;1.90;;
75496;SDS011;64074;47.540;19.072;2023-05-09T14:34:52;3.13;;;1.83;;
75496;SDS011;64074;47.540;19.072;2023-05-09T14:38:14;2.35;;;1.33;;
75496;SDS011;64074;47.540;19.072;2023-05-09T14:41:49;2.60;;;1.40;;
75496;SDS011;64074;47.540;19.072;2023-05-09T14:46:14;2.08;;;1.00;;
75496;SDS011;64074;47.540;19.072;2023-05-09T14:49:26;2.90;;;1.10;;
75496;SDS011;64074;47.540;19.072;2023-05-09T14:52:36;3.22;;;1.10;;
75496;SDS011;64074;47.540;19.072;2023-05-09T14:55:58;2.33;;;1.10;;
75496;SDS011;64074;47.540;19.072;2023-05-09T14:59:26;1.47;;;1.00;;
75496;SDS011;64074;47.540;19.072;2023-05-09T15:02:48;1.27;;;0.90;;
75496;SDS011;64074;47.540;19.072;2023-05-09T15:06:06;4.40;;;1.80;;
75496;SDS011;64074;47.540;19.072;2023-05-09T15:09:21;3.78;;;1.10;;
75496;SDS011;64074;47.540;19.072;2023-05-09T15:12:31;1.40;;;1.00;;
75496;SDS011;64074;47.540;19.072;2023-05-09T15:15:40;3.10;;;1.00;;
75496;SDS011;64074;47.540;19.072;2023-05-09T15:18:53;2.80;;;1.05;;
75496;SDS011;64074;47.540;19.072;2023-05-09T15:22:10;1.70;;;1.00;;
75496;SDS011;64074;47.540;19.072;2023-05-09T15:25:31;2.85;;;1.30;;
75496;SDS011;64074;47.540;19.072;2023-05-09T15:28:48;1.20;;;1.10;;
75496;SDS011;64074;47.540;19.072;2023-05-09T15:32:12;3.60;;;1.23;;
75496;SDS011;64074;47.540;19.072;2023-05-09T15:35:31;1.45;;;0.80;;
75496;SDS011;64074;47.540;19.072;2023-05-09T15:38:43;2.80;;;1.10;;
75496;SDS011;64074;47.540;19.072;2023-05-09T15:41:52;3.05;;;1.05;;
75496;SDS011;64074;47.540;19.072;2023-05-09T15:45:00;3.03;;;1.10;;
75496;SDS011;64074;47.540;19.072;2023-05-09T15:48:12;1.40;;;1.30;;
75496;SDS011;64074;47.540;19.072;2023-05-09T15:51:27;2.97;;;1.60;;
75496;SDS011;64074;47.540;19.072;2023-05-09T15:54:34;1.35;;;1.10;;
75496;SDS011;64074;47.540;19.072;2023-05-09T15:57:38;2.35;;;1.05;;
75496;SDS011;64074;47.540;19.072;2023-05-09T16:00:48;3.88;;;1.13;;
75496;SDS011;64074;47.540;19.072;2023-05-09T16:04:11;2.30;;;1.03;;
75496;SDS011;64074;47.540;19.072;2023-05-09T16:07:24;3.65;;;1.30;;
75496;SDS011;64074;47.540;19.072;2023-05-09T16:10:56;4.82;;;3.53;;
75496;SDS011;64074;47.540;19.072;2023-05-09T16:14:10;2.92;;;1.40;;
75496;SDS011;64074;47.540;19.072;2023-05-09T16:17:46;1.10;;;1.00;;
75496;SDS011;64074;47.540;19.072;2023-05-09T16:21:09;19.37;;;8.10;;
75496;SDS011;64074;47.540;19.072;2023-05-09T16:24:33;4.22;;;1.70;;
75496;SDS011;64074;47.540;19.072;2023-05-09T16:27:56;2.83;;;1.02;;
75496;SDS011;64074;47.540;19.072;2023-05-09T16:31:07;1.77;;;1.20;;
75496;SDS011;64074;47.540;19.072;2023-05-09T16:34:40;1.75;;;1.15;;
75496;SDS011;64074;47.540;19.072;2023-05-09T16:37:56;1.10;;;0.90;;
75496;SDS011;64074;47.540;19.072;2023-05-09T16:41:26;1.10;;;1.00;;
75496;SDS011;64074;47.540;19.072;2023-05-09T16:44:54;1.13;;;1.00;;
75496;SDS011;64074;47.540;19.072;2023-05-09T16:48:06;3.65;;;1.20;;
75496;SDS011;64074;47.540;19.072;2023-05-09T16:51:36;1.95;;;1.33;;
75496;SDS011;64074;47.540;19.072;2023-05-09T16:54:49;7.07;;;1.50;;
75496;SDS011;64074;47.540;19.072;2023-05-09T16:58:18;1.45;;;1.20;;
75496;SDS011;64074;47.540;19.072;2023-05-09T17:01:45;3.35;;;1.20;;
75496;SDS011;64074;47.540;19.072;2023-05-09T17:05:13;2.25;;;1.30;;
75496;SDS011;64074;47.540;19.072;2023-05-09T17:08:29;1.30;;;0.95;;
75496;SDS011;64074;47.540;19.072;2023-05-09T17:11:50;3.73;;;1.50;;
75496;SDS011;64074;47.540;19.072;2023-05-09T17:15:00;3.97;;;1.10;;
75496;SDS011;64074;47.540;19.072;2023-05-09T17:18:22;5.18;;;1.92;;
75496;SDS011;64074;47.540;19.072;2023-05-09T17:21:54;2.25;;;1.65;;
75496;SDS011;64074;47.540;19.072;2023-05-09T17:25:26;2.75;;;1.48;;
75496;SDS011;64074;47.540;19.072;2023-05-09T17:28:41;3.80;;;1.47;;
75496;SDS011;64074;47.540;19.072;2023-05-09T17:32:04;6.28;;;4.00;;
75496;SDS011;64074;47.540;19.072;2023-05-09T17:35:27;3.63;;;1.42;;
75496;SDS011;64074;47.540;19.072;2023-05-09T17:38:50;2.88;;;1.27;;
75496;SDS011;64074;47.540;19.072;2023-05-09T17:42:04;2.35;;;1.25;;
75496;SDS011;64074;47.540;19.072;2023-05-09T17:45:15;1.57;;;1.20;;
75496;SDS011;64074;47.540;19.072;2023-05-09T17:48:56;1.23;;;1.00;;
75496;SDS011;64074;47.540;19.072;2023-05-09T17:52:23;4.43;;;1.50;;
75496;SDS011;64074;47.540;19.072;2023-05-09T17:55:54;2.92;;;1.40;;
75496;SDS011;64074;47.540;19.072;2023-05-09T17:59:05;5.13;;;1.88;;
75496;SDS011;64074;47.540;19.072;2023-05-09T18:02:17;3.50;;;1.67;;
75496;SDS011;64074;47.540;19.072;2023-05-09T18:05:46;2.25;;;1.40;;
75496;SDS011;64074;47.540;19.072;2023-05-09T18:09:17;2.65;;;1.40;;
75496;SDS011;64074;47.540;19.072;2023-05-09T18:12:28;2.58;;;1.23;;
75496;SDS011;64074;47.540;19.072;2023-05-09T18:15:47;1.67;;;1.50;;
75496;SDS011;64074;47.540;19.072;2023-05-09T18:19:11;4.57;;;1.37;;
75496;SDS011;64074;47.540;19.072;2023-05-09T18:22:25;2.63;;;1.70;;
75496;SDS011;64074;47.540;19.072;2023-05-09T18:25:28;2.17;;;1.80;;
75496;SDS011;64074;47.540;19.072;2023-05-09T18:28:43;3.58;;;1.40;;
75496;SDS011;64074;47.540;19.072;2023-05-09T18:31:53;2.42;;;1.58;;
75496;SDS011;64074;47.540;19.072;2023-05-09T18:35:15;5.47;;;2.90;;
75496;SDS011;64074;47.540;19.072;2023-05-09T18:38:31;5.47;;;2.00;;
75496;SDS011;64074;47.540;19.072;2023-05-09T18:42:00;3.15;;;1.83;;
75496;SDS011;64074;47.540;19.072;2023-05-09T18:45:24;8.05;;;1.95;;
75496;SDS011;64074;47.540;19.072;2023-05-09T18:48:34;2.90;;;1.63;;
75496;SDS011;64074;47.540;19.072;2023-05-09T18:51:44;3.40;;;1.57;;
75496;SDS011;64074;47.540;19.072;2023-05-09T18:55:22;3.78;;;1.90;;
75496;SDS011;64074;47.540;19.072;2023-05-09T18:58:59;2.78;;;1.63;;
75496;SDS011;64074;47.540;19.072;2023-05-09T19:02:30;3.35;;;2.15;;
75496;SDS011;64074;47.540;19.072;2023-05-09T19:05:45;3.42;;;1.75;;
75496;SDS011;64074;47.540;19.072;2023-05-09T19:09:07;5.27;;;1.90;;
75496;SDS011;64074;47.540;19.072;2023-05-09T19:12:35;6.20;;;1.88;;
75496;SDS011;64074;47.540;19.072;2023-05-09T19:15:52;5.20;;;2.17;;
75496;SDS011;64074;47.540;19.072;2023-05-09T19:19:18;3.63;;;1.70;;
75496;SDS011;64074;47.540;19.072;2023-05-09T19:22:26;4.07;;;2.10;;
75496;SDS011;64074;47.540;19.072;2023-05-09T19:25:45;5.20;;;2.50;;
75496;SDS011;64074;47.540;19.072;2023-05-09T19:29:03;3.17;;;2.22;;
75496;SDS011;64074;47.540;19.072;2023-05-09T19:32:27;5.10;;;2.03;;
75496;SDS011;64074;47.540;19.072;2023-05-09T19:35:43;4.53;;;2.38;;
75496;SDS011;64074;47.540;19.072;2023-05-09T19:38:53;3.00;;;2.00;;
75496;SDS011;64074;47.540;19.072;2023-05-09T19:42:30;3.47;;;1.90;;
75496;SDS011;64074;47.540;19.072;2023-05-09T19:45:49;4.50;;;2.10;;
75496;SDS011;64074;47.540;19.072;2023-05-09T19:49:20;3.38;;;1.95;;
75496;SDS011;64074;47.540;19.072;2023-05-09T19:52:56;3.17;;;2.35;;
75496;SDS011;64074;47.540;19.072;2023-05-09T19:56:17;3.35;;;2.00;;
75496;SDS011;64074;47.540;19.072;2023-05-09T19:59:42;4.90;;;2.20;;
75496;SDS011;64074;47.540;19.072;2023-05-09T20:03:28;4.55;;;2.22;;
75496;SDS011;64074;47.540;19.072;2023-05-09T20:07:06;4.75;;;2.38;;
75496;SDS011;64074;47.540;19.072;2023-05-09T20:10:41;3.92;;;1.98;;
75496;SDS011;64074;47.540;19.072;2023-05-09T20:14:09;4.78;;;2.10;;
75496;SDS011;64074;47.540;19.072;2023-05-09T20:17:23;3.70;;;2.10;;